createdAt,value
2022-08-05T00:03:58.201Z,22.91
2022-08-05T00:09:20.325Z,22.86
2022-08-05T00:15:40.751Z,22.80
2022-08-05T00:20:54.466Z,22.75
2022-08-05T00:26:25.033Z,22.69
2022-08-05T00:32:13.086Z,22.62
2022-08-05T00:37:35.870Z,22.57
2022-08-05T00:43:15.382Z,22.52
2022-08-05T00:48:51.217Z,22.44
2022-08-05T00:54:14.870Z,22.37
2022-08-05T00:59:34.607Z,22.32
2022-08-05T01:05:05.087Z,22.26
2022-08-05T01:10:32.645Z,22.22
2022-08-05T01:15:58.142Z,22.18
2022-08-05T01:22:10.850Z,22.13
2022-08-05T01:28:00.445Z,22.07
2022-08-05T01:33:20.704Z,22.00
2022-08-05T01:38:50.880Z,21.92
2022-08-05T01:44:00.241Z,21.86
2022-08-05T01:50:00.572Z,21.78
2022-08-05T01:55:22.164Z,21.67
2022-08-05T02:00:36.668Z,21.56
2022-08-05T02:05:59.737Z,21.48
2022-08-05T02:11:34.904Z,21.37
2022-08-05T02:16:56.347Z,21.27
2022-08-05T02:22:26.462Z,21.18
2022-08-05T02:27:59.574Z,21.09
2022-08-05T02:33:12.841Z,21.01
2022-08-05T02:38:54.397Z,20.92
2022-08-05T02:44:13.203Z,20.79
2022-08-05T02:49:36.689Z,20.66
2022-08-05T02:54:57.308Z,20.55
2022-08-05T03:00:05.856Z,20.44
2022-08-05T03:05:15.428Z,20.32
2022-08-05T03:10:37.490Z,20.22
2022-08-05T03:15:49.280Z,20.14
2022-08-05T03:21:15.938Z,20.01
2022-08-05T03:26:45.675Z,19.90
2022-08-05T03:32:16.672Z,19.86
2022-08-05T03:37:41.009Z,19.88
2022-08-05T03:43:58.307Z,19.93
2022-08-05T03:49:02.377Z,19.99
2022-08-05T03:55:50.221Z,20.08
2022-08-05T04:00:16.587Z,20.14
2022-08-05T04:05:27.861Z,20.23
2022-08-05T04:10:45.530Z,20.45
2022-08-05T04:16:15.661Z,20.90
2022-08-05T04:22:09.624Z,21.46
2022-08-05T04:27:19.101Z,22.02
2022-08-05T04:32:31.261Z,22.48
2022-08-05T04:38:02.710Z,22.76
2022-08-05T04:43:16.679Z,23.07
2022-08-05T04:48:29.032Z,23.37
2022-08-05T04:53:39.081Z,23.67
2022-08-05T04:58:46.481Z,23.84
2022-08-05T05:03:59.238Z,23.92
2022-08-05T05:09:23.759Z,23.94
2022-08-05T05:14:32.288Z,24.10
2022-08-05T05:19:47.444Z,24.30
2022-08-05T05:25:16.887Z,24.59
2022-08-05T05:30:29.882Z,24.72
2022-08-05T05:35:47.569Z,24.92
2022-08-05T05:40:55.174Z,25.14
2022-08-05T05:46:06.893Z,25.51
2022-08-05T05:51:28.059Z,25.55
2022-08-05T05:56:50.154Z,25.74
2022-08-05T06:02:01.295Z,26.00
2022-08-05T06:07:22.443Z,26.47
2022-08-05T06:12:35.124Z,26.88
2022-08-05T06:17:52.752Z,26.84
2022-08-05T06:23:05.600Z,26.92
2022-08-05T06:28:21.427Z,27.17
2022-08-05T06:34:00.476Z,27.35
2022-08-05T06:38:59.757Z,27.58
2022-08-05T06:44:07.569Z,27.88
2022-08-05T06:49:17.069Z,28.47
2022-08-05T06:54:26.309Z,29.07
2022-08-05T06:59:42.202Z,29.85
2022-08-05T07:04:53.567Z,30.71
2022-08-05T07:10:05.840Z,31.25
2022-08-05T07:16:00.796Z,31.67
2022-08-05T07:21:05.408Z,32.19
2022-08-05T07:26:14.030Z,32.54
2022-08-05T07:31:41.039Z,32.35
2022-08-05T07:36:56.338Z,32.42
2022-08-05T07:42:12.865Z,32.49
2022-08-05T07:47:25.851Z,32.56
2022-08-05T07:52:33.862Z,32.33
2022-08-05T07:57:58.908Z,32.10
2022-08-05T08:03:13.932Z,32.13
2022-08-05T08:08:23.524Z,32.22
2022-08-05T08:13:42.970Z,32.18
2022-08-05T08:18:57.376Z,32.07
2022-08-05T08:24:09.503Z,31.97
2022-08-05T08:30:03.922Z,32.07
2022-08-05T08:34:54.981Z,31.95
2022-08-05T08:40:05.272Z,31.55
2022-08-05T08:45:19.602Z,31.21
2022-08-05T08:51:03.870Z,30.80
2022-08-05T08:56:06.211Z,30.32
2022-08-05T09:01:23.114Z,30.05
2022-08-05T09:06:36.273Z,29.82
2022-08-05T09:11:52.205Z,29.68
2022-08-05T09:17:01.432Z,29.68
2022-08-05T09:22:22.079Z,29.65
2022-08-05T09:28:04.272Z,29.75
2022-08-05T09:33:07.852Z,29.87
2022-08-05T09:38:17.953Z,30.00
2022-08-05T09:43:41.239Z,30.23
2022-08-05T09:49:06.754Z,30.39
2022-08-05T09:54:35.655Z,30.36
2022-08-05T09:59:50.506Z,30.29
2022-08-05T10:05:10.042Z,30.35
2022-08-05T10:10:19.180Z,30.45
2022-08-05T10:15:47.336Z,30.53
2022-08-05T10:20:57.131Z,30.64
2022-08-05T10:26:07.475Z,30.66
2022-08-05T10:32:54.430Z,30.63
2022-08-05T10:36:50.170Z,30.65
2022-08-05T10:42:04.404Z,30.75
2022-08-05T10:47:27.113Z,30.82
2022-08-05T10:52:49.548Z,30.93
2022-08-05T10:58:11.947Z,30.93
2022-08-05T11:03:27.528Z,30.96
2022-08-05T11:09:02.266Z,30.95
2022-08-05T11:14:14.443Z,30.96
2022-08-05T11:20:17.105Z,31.06
2022-08-05T11:26:04.418Z,31.21
2022-08-05T11:31:57.341Z,31.29
2022-08-05T11:36:56.368Z,31.25
2022-08-05T11:42:08.294Z,31.29
2022-08-05T11:47:21.773Z,31.32
2022-08-05T11:52:31.229Z,31.41
2022-08-05T11:58:08.156Z,31.50
2022-08-05T12:03:28.625Z,31.53
2022-08-05T12:08:51.327Z,31.62
2022-08-05T12:14:13.749Z,31.67
2022-08-05T12:20:26.796Z,31.72
2022-08-05T12:24:53.209Z,31.69
2022-08-05T12:30:05.476Z,31.60
2022-08-05T12:35:37.186Z,31.56
2022-08-05T12:40:47.361Z,31.55
2022-08-05T12:46:08.125Z,31.62
2022-08-05T12:52:09.989Z,31.66
2022-08-05T12:56:52.554Z,31.72
2022-08-05T13:02:07.023Z,31.78
2022-08-05T13:07:30.970Z,31.85
2022-08-05T13:12:58.945Z,31.88
2022-08-05T13:18:06.713Z,31.84
2022-08-05T13:23:22.609Z,31.89
2022-08-05T13:28:44.154Z,32.06
2022-08-05T13:34:21.751Z,32.10
2022-08-05T13:39:24.613Z,32.12
2022-08-05T13:44:54.113Z,32.16
2022-08-05T13:50:06.786Z,32.18
2022-08-05T13:55:41.926Z,32.14
2022-08-05T14:00:46.546Z,32.14
2022-08-05T14:06:26.439Z,32.15
2022-08-05T14:11:32.434Z,32.14
2022-08-05T14:17:03.206Z,32.09
2022-08-05T14:22:12.179Z,32.17
2022-08-05T14:27:19.913Z,32.23
2022-08-05T14:32:32.299Z,32.33
2022-08-05T14:37:47.358Z,32.42
2022-08-05T14:42:57.592Z,32.39
2022-08-05T14:48:32.357Z,32.52
2022-08-05T14:54:28.176Z,32.66
2022-08-05T14:59:47.814Z,32.70
2022-08-05T15:05:01.135Z,32.56
2022-08-05T15:10:16.367Z,32.54
2022-08-05T15:15:55.984Z,32.55
2022-08-05T15:20:54.788Z,32.56
2022-08-05T15:26:31.964Z,32.56
2022-08-05T15:31:39.896Z,32.51
2022-08-05T15:36:58.895Z,32.45
2022-08-05T15:42:55.148Z,32.43
2022-08-05T15:47:40.567Z,32.49
2022-08-05T15:52:52.902Z,32.50
2022-08-05T15:58:05.423Z,32.47
2022-08-05T16:03:19.815Z,32.43
2022-08-05T16:08:31.027Z,32.43
2022-08-05T16:13:38.648Z,32.39
2022-08-05T16:18:52.576Z,32.40
2022-08-05T16:24:03.298Z,32.34
2022-08-05T16:29:20.125Z,32.28
2022-08-05T16:34:29.995Z,32.27
2022-08-05T16:40:04.818Z,32.25
2022-08-05T16:46:04.580Z,32.17
2022-08-05T16:50:50.420Z,32.11
2022-08-05T16:55:58.518Z,32.03
2022-08-05T17:01:06.617Z,31.98
2022-08-05T17:06:19.123Z,31.92
2022-08-05T17:11:26.818Z,31.86
2022-08-05T17:16:39.445Z,31.79
2022-08-05T17:21:57.044Z,31.69
2022-08-05T17:27:22.965Z,31.57
2022-08-05T17:32:34.777Z,31.46
2022-08-05T17:37:45.561Z,31.35
2022-08-05T17:42:56.251Z,31.23
2022-08-05T17:48:28.615Z,31.09
2022-08-05T17:53:36.235Z,30.96
2022-08-05T17:58:47.017Z,30.82
2022-08-05T18:03:59.101Z,30.72
2022-08-05T18:09:16.174Z,30.61
2022-08-05T18:14:31.511Z,30.33
2022-08-05T18:20:00.291Z,29.84
2022-08-05T18:25:10.130Z,29.45
2022-08-05T18:30:24.515Z,29.05
2022-08-05T18:36:00.911Z,28.58
2022-08-05T18:41:58.285Z,28.05
2022-08-05T18:46:49.513Z,27.72
2022-08-05T18:52:25.471Z,27.42
2022-08-05T18:58:03.408Z,27.18
2022-08-05T19:03:53.004Z,27.03
2022-08-05T19:09:01.466Z,26.84
2022-08-05T19:14:52.325Z,26.56
2022-08-05T19:19:39.031Z,26.06
2022-08-05T19:24:56.324Z,25.60
2022-08-05T19:30:21.472Z,25.25
2022-08-05T19:35:55.938Z,25.03
2022-08-05T19:41:58.557Z,24.81
2022-08-05T19:47:49.341Z,24.67
2022-08-05T19:54:03.364Z,24.56
2022-08-05T20:00:00.590Z,24.37
2022-08-05T20:05:51.464Z,24.11
2022-08-05T20:18:45.759Z,23.67
2022-08-05T20:24:22.154Z,23.42
2022-08-05T20:30:15.193Z,23.30
2022-08-05T20:35:49.401Z,23.17
2022-08-05T20:41:23.725Z,23.01
2022-08-05T20:46:57.460Z,22.80
2022-08-05T20:52:31.304Z,22.71
2022-08-05T20:58:02.369Z,22.65
2022-08-05T21:03:29.313Z,22.57
2022-08-05T21:09:10.074Z,22.48
2022-08-05T21:14:45.609Z,22.48
2022-08-05T21:20:32.791Z,22.48
2022-08-05T21:25:58.695Z,22.38
2022-08-05T21:31:21.804Z,22.27
2022-08-05T21:36:51.861Z,22.18
2022-08-05T21:42:31.017Z,22.09
2022-08-05T21:48:11.570Z,21.98
2022-08-05T21:53:42.884Z,21.93
2022-08-05T21:59:24.039Z,21.93
2022-08-05T22:04:48.852Z,21.89
2022-08-05T22:10:26.643Z,21.90
2022-08-05T22:16:00.412Z,21.86
2022-08-05T22:21:36.487Z,21.88
2022-08-05T22:27:19.551Z,21.86
2022-08-05T22:32:41.605Z,21.81
2022-08-05T22:38:34.113Z,21.66
2022-08-05T22:43:57.119Z,21.57
2022-08-05T22:50:17.368Z,21.47
2022-08-05T22:55:00.754Z,21.36
2022-08-05T23:00:27.420Z,21.23
2022-08-05T23:05:56.562Z,21.06
2022-08-05T23:11:49.246Z,20.95
2022-08-05T23:17:34.937Z,20.84
2022-08-05T23:22:56.082Z,20.79
2022-08-05T23:28:29.505Z,20.74
2022-08-05T23:34:04.124Z,20.65
2022-08-05T23:39:53.854Z,20.56
2022-08-05T23:45:23.799Z,20.50
2022-08-05T23:50:52.310Z,20.49
2022-08-05T23:56:13.199Z,20.50
